Impacts TAF Board
For situational awareness. Not to be used for flight planning purposes.
IDs:

KSLC - Salt Lake City Intl, UT, US

Issued at 0810 UTC 18 Jan 2019
Updated at 0910 UTC 18 Jan 2019
Potential Impact None Slight Moderate High
Time<<18/22Z 18/23Z 19/00Z 19/01Z 19/02Z 19/03Z 19/04Z 19/05Z 19/06Z 19/07Z 19/08Z 19/09Z 19/10Z>>
Type PRVL PRVL PRVL PRVL PRVL PRVL PRVL PRVL PRVL PRVL PRVL PRVL PRVL
VIS >6 >6 >6 >6 >6 >6 >6 >6 >6 >6 >6 >6 >6
CIG -- -- -- -- -- -- -- -- -- -- -- -- --
Cover SCT SCT SCT SCT SCT SCT SCT SCT SCT SCT SCT SCT SCT
FltCat VFR VFR VFR VFR VFR VFR VFR VFR VFR VFR VFR VFR VFR
WX -- -- -- -- -- -- -- -- -- -- -- -- --
WDir 340 340 340 340 160 160 160 160 160 160 160 160 160
WSpd 6 6 6 6 7 7 7 7 7 7 7 7 7
WGst -- -- -- -- -- -- -- -- -- -- -- -- --
Raw TAF
KSLC 180810Z 1808/1912 26006KT P6SM VCSH SCT030 OVC070
  FM181100 34010KT 6SM -RASN SCT020 BKN040
  FM181500 34008KT 6SM BR VCSH BKN015 OVC030
  FM181800 34006KT P6SM SCT030 SCT060
  FM190200 16007KT P6SM SCT050 SCT100


METAR Board
Radar Display
Forecast Discussion
For situational awareness. Not to be used for flight planning purposes.